Time,TemperatureF,DewpointF,PressureIn,WindDirection,WindDirectionDegrees,WindSpeedMPH,WindSpeedGustMPH,Humidity,HourlyPrecipIn,Conditions,Clouds,dailyrainin,SoftwareType,DateUTC
2013-11-25 00:01:00,20.7,7.0,30.38,West,275,1.0,2.0,55,0.00,,,0.00,meteohub,2013-11-25 05:01:00,
2013-11-25 00:02:00,20.7,7.0,30.38,West,276,0.0,2.0,55,0.00,,,0.00,meteohub,2013-11-25 05:02:00,
2013-11-25 00:03:00,20.5,6.8,30.38,NW,321,0.0,2.0,55,0.00,,,0.00,meteohub,2013-11-25 05:03:00,
2013-11-25 00:08:00,20.1,7.0,30.38,WNW,302,1.0,2.0,56,0.00,,,0.00,meteohub,2013-11-25 05:08:00,
2013-11-25 00:13:00,19.9,7.5,30.38,West,278,0.0,2.0,58,0.00,,,0.00,meteohub,2013-11-25 05:13:00,
2013-11-25 00:18:00,19.8,7.3,30.38,WNW,293,0.0,4.0,58,0.00,,,0.00,meteohub,2013-11-25 05:18:00,
2013-11-25 00:23:00,19.2,7.2,30.38,ESE,121,1.0,4.0,59,0.00,,,0.00,meteohub,2013-11-25 05:23:00,
2013-11-25 00:28:00,18.9,7.3,30.38,NW,315,0.0,4.0,60,0.00,,,0.00,meteohub,2013-11-25 05:28:00,
2013-11-25 00:33:00,18.5,7.0,30.39,NW,314,0.0,4.0,60,0.00,,,0.00,meteohub,2013-11-25 05:33:00,
2013-11-25 00:39:00,18.5,7.7,30.39,NW,314,0.0,4.0,62,0.00,,,0.00,meteohub,2013-11-25 05:39:00,
2013-11-25 00:44:00,18.3,7.5,30.38,NW,314,0.0,1.0,62,0.00,,,0.00,meteohub,2013-11-25 05:44:00,
2013-11-25 00:49:00,18.9,8.1,30.38,West,281,0.0,0.0,62,0.00,,,0.00,meteohub,2013-11-25 05:49:00,
2013-11-25 00:54:00,18.9,8.1,30.38,SW,231,1.0,3.0,62,0.00,,,0.00,meteohub,2013-11-25 05:54:00,
2013-11-25 00:59:00,19.0,8.2,30.38,WSW,250,0.0,3.0,62,0.00,,,0.00,meteohub,2013-11-25 05:59:00,
2013-11-25 01:04:00,19.0,7.9,30.38,WSW,253,1.0,4.0,61,0.00,,,0.00,meteohub,2013-11-25 06:04:00,
2013-11-25 01:09:00,19.2,7.7,30.38,West,281,0.0,4.0,60,0.00,,,0.00,meteohub,2013-11-25 06:09:00,
2013-11-25 01:14:00,19.2,7.7,30.38,NW,305,0.0,4.0,60,0.00,,,0.00,meteohub,2013-11-25 06:14:00,
2013-11-25 01:19:00,19.2,7.7,30.38,NW,305,0.0,2.0,60,0.00,,,0.00,meteohub,2013-11-25 06:19:00,
2013-11-25 01:24:00,18.9,7.3,30.38,NW,305,0.0,2.0,60,0.00,,,0.00,meteohub,2013-11-25 06:24:00,
2013-11-25 01:29:00,18.3,7.5,30.38,NW,305,0.0,1.0,62,0.00,,,0.00,meteohub,2013-11-25 06:29:00,
2013-11-25 01:34:00,18.0,7.9,30.38,NW,305,0.0,0.0,64,0.00,,,0.00,meteohub,2013-11-25 06:34:00,
2013-11-25 01:39:00,17.4,7.7,30.38,NNW,332,0.0,0.0,65,0.00,,,0.00,meteohub,2013-11-25 06:39:00,
2013-11-25 01:44:00,17.1,7.7,30.39,NNW,331,0.0,0.0,66,0.00,,,0.00,meteohub,2013-11-25 06:44:00,
2013-11-25 01:49:00,16.5,7.5,30.39,NNW,332,0.0,0.0,67,0.00,,,0.00,meteohub,2013-11-25 06:49:00,
2013-11-25 01:54:00,16.5,8.1,30.39,NNW,330,0.0,0.0,69,0.00,,,0.00,meteohub,2013-11-25 06:54:00,
2013-11-25 01:59:00,16.5,8.1,30.39,NW,309,0.0,0.0,69,0.00,,,0.00,meteohub,2013-11-25 06:59:00,
2013-11-25 02:04:00,16.3,9.0,30.39,NW,309,0.0,2.0,72,0.00,,,0.00,meteohub,2013-11-25 07:04:00,
2013-11-25 02:10:00,16.3,9.0,30.40,NW,309,0.0,2.0,72,0.00,,,0.00,meteohub,2013-11-25 07:10:00,
2013-11-25 02:15:00,16.3,9.0,30.40,NW,309,0.0,2.0,72,0.00,,,0.00,meteohub,2013-11-25 07:15:00,
2013-11-25 02:20:00,16.2,8.4,30.40,NW,309,0.0,0.0,71,0.00,,,0.00,meteohub,2013-11-25 07:20:00,
2013-11-25 02:25:00,16.2,8.4,30.40,NW,309,0.0,0.0,71,0.00,,,0.00,meteohub,2013-11-25 07:25:00,
2013-11-25 02:30:00,16.3,9.0,30.40,WNW,287,0.0,0.0,72,0.00,,,0.00,meteohub,2013-11-25 07:30:00,
2013-11-25 02:35:00,16.3,9.0,30.39,WNW,290,0.0,0.0,72,0.00,,,0.00,meteohub,2013-11-25 07:35:00,
2013-11-25 02:40:00,16.9,9.1,30.40,WSW,257,0.0,0.0,71,0.00,,,0.00,meteohub,2013-11-25 07:40:00,
2013-11-25 02:45:00,16.9,9.1,30.40,West,280,0.0,4.0,71,0.00,,,0.00,meteohub,2013-11-25 07:45:00,
2013-11-25 02:50:00,16.9,8.8,30.39,WNW,297,1.0,4.0,70,0.00,,,0.00,meteohub,2013-11-25 07:50:00,
2013-11-25 02:55:00,16.9,9.1,30.39,NW,309,0.0,2.0,71,0.00,,,0.00,meteohub,2013-11-25 07:55:00,
2013-11-25 03:00:00,17.4,9.0,30.39,WNW,290,1.0,4.0,69,0.00,,,0.00,meteohub,2013-11-25 08:00:00,
2013-11-25 03:05:00,18.1,9.0,30.40,NW,315,1.0,4.0,67,0.00,,,0.00,meteohub,2013-11-25 08:05:00,
2013-11-25 03:10:00,18.1,8.8,30.40,NW,314,0.0,4.0,66,0.00,,,0.00,meteohub,2013-11-25 08:10:00,
2013-11-25 03:15:00,18.1,9.0,30.40,NW,315,0.0,2.0,67,0.00,,,0.00,meteohub,2013-11-25 08:15:00,
2013-11-25 03:20:00,17.4,9.3,30.40,NW,314,0.0,1.0,70,0.00,,,0.00,meteohub,2013-11-25 08:20:00,
2013-11-25 03:25:00,16.9,8.8,30.40,NW,314,0.0,0.0,70,0.00,,,0.00,meteohub,2013-11-25 08:25:00,
2013-11-25 03:30:00,16.5,8.8,30.40,NW,315,0.0,1.0,71,0.00,,,0.00,meteohub,2013-11-25 08:30:00,
2013-11-25 03:35:00,16.3,8.2,30.40,NW,312,1.0,1.0,70,0.00,,,0.00,meteohub,2013-11-25 08:35:00,
2013-11-25 03:41:00,16.2,8.4,30.40,NW,312,0.0,1.0,71,0.00,,,0.00,meteohub,2013-11-25 08:41:00,
2013-11-25 03:46:00,16.5,9.1,30.40,NW,311,0.0,1.0,72,0.00,,,0.00,meteohub,2013-11-25 08:46:00,
2013-11-25 03:51:00,16.5,8.8,30.40,WNW,302,0.0,2.0,71,0.00,,,0.00,meteohub,2013-11-25 08:51:00,
2013-11-25 03:56:00,16.5,8.8,30.40,WNW,302,0.0,2.0,71,0.00,,,0.00,meteohub,2013-11-25 08:56:00,
2013-11-25 04:01:00,16.3,9.0,30.40,WNW,302,0.0,2.0,72,0.00,,,0.00,meteohub,2013-11-25 09:01:00,
2013-11-25 04:06:00,16.5,9.1,30.40,WNW,292,0.0,2.0,72,0.00,,,0.00,meteohub,2013-11-25 09:06:00,
2013-11-25 04:11:00,16.9,9.5,30.41,WNW,292,0.0,2.0,72,0.00,,,0.00,meteohub,2013-11-25 09:11:00,
2013-11-25 04:16:00,16.5,9.3,30.41,WNW,290,0.0,2.0,73,0.00,,,0.00,meteohub,2013-11-25 09:16:00,
2013-11-25 04:21:00,16.3,9.0,30.41,WNW,282,0.0,1.0,72,0.00,,,0.00,meteohub,2013-11-25 09:21:00,
2013-11-25 04:26:00,16.3,9.5,30.42,SW,235,2.0,2.0,74,0.00,,,0.00,meteohub,2013-11-25 09:26:00,
2013-11-25 04:31:00,16.5,9.7,30.42,WSW,252,1.0,2.0,74,0.00,,,0.00,meteohub,2013-11-25 09:31:00,
2013-11-25 04:36:00,16.5,9.7,30.42,WNW,282,1.0,2.0,74,0.00,,,0.00,meteohub,2013-11-25 09:36:00,
2013-11-25 04:41:00,16.9,10.4,30.42,West,271,1.0,3.0,75,0.00,,,0.00,meteohub,2013-11-25 09:41:00,
2013-11-25 04:46:00,16.9,10.4,30.43,WSW,257,1.0,3.0,75,0.00,,,0.00,meteohub,2013-11-25 09:46:00,
2013-11-25 04:52:00,16.9,10.4,30.43,WSW,242,0.0,3.0,75,0.00,,,0.00,meteohub,2013-11-25 09:52:00,
2013-11-25 04:57:00,17.2,10.9,30.43,West,273,0.0,4.0,76,0.00,,,0.00,meteohub,2013-11-25 09:57:00,
2013-11-25 05:02:00,17.4,11.1,30.43,West,274,0.0,4.0,76,0.00,,,0.00,meteohub,2013-11-25 10:02:00,
2013-11-25 05:07:00,17.4,11.1,30.43,West,275,2.0,4.0,76,0.00,,,0.00,meteohub,2013-11-25 10:07:00,
2013-11-25 05:12:00,17.6,11.7,30.43,WNW,287,1.0,3.0,77,0.00,,,0.00,meteohub,2013-11-25 10:12:00,
2013-11-25 05:17:00,17.8,11.8,30.43,WNW,283,3.0,3.0,77,0.00,,,0.00,meteohub,2013-11-25 10:17:00,
2013-11-25 05:22:00,18.1,12.4,30.43,West,274,1.0,4.0,78,0.00,,,0.00,meteohub,2013-11-25 10:22:00,
2013-11-25 05:27:00,18.5,12.6,30.43,WNW,283,0.0,5.0,77,0.00,,,0.00,meteohub,2013-11-25 10:27:00,
2013-11-25 05:32:00,18.7,12.7,30.43,West,264,1.0,5.0,77,0.00,,,0.00,meteohub,2013-11-25 10:32:00,
2013-11-25 05:37:00,18.7,12.7,30.43,West,276,1.0,4.0,77,0.00,,,0.00,meteohub,2013-11-25 10:37:00,
2013-11-25 05:42:00,18.7,12.7,30.43,WSW,254,0.0,2.0,77,0.00,,,0.00,meteohub,2013-11-25 10:42:00,
2013-11-25 05:47:00,18.3,12.4,30.43,WSW,256,0.0,3.0,77,0.00,,,0.00,meteohub,2013-11-25 10:47:00,
2013-11-25 05:52:00,18.1,12.2,30.43,WSW,257,0.0,3.0,77,0.00,,,0.00,meteohub,2013-11-25 10:52:00,
2013-11-25 05:57:00,17.8,11.8,30.43,WSW,257,0.0,2.0,77,0.00,,,0.00,meteohub,2013-11-25 10:57:00,
2013-11-25 06:02:00,17.1,11.1,30.44,WSW,257,0.0,0.0,77,0.00,,,0.00,meteohub,2013-11-25 11:02:00,
2013-11-25 06:07:00,16.5,11.1,30.43,WSW,256,0.0,0.0,79,0.00,,,0.00,meteohub,2013-11-25 11:07:00,
2013-11-25 06:12:00,16.3,11.3,30.44,NW,318,1.0,1.0,80,0.00,,,0.00,meteohub,2013-11-25 11:12:00,
2013-11-25 06:17:00,16.2,11.1,30.44,West,266,1.0,2.0,80,0.00,,,0.00,meteohub,2013-11-25 11:17:00,
2013-11-25 06:22:00,16.2,11.3,30.44,SSW,193,0.0,2.0,81,0.00,,,0.00,meteohub,2013-11-25 11:22:00,
2013-11-25 06:27:00,16.0,11.1,30.44,SSW,193,0.0,2.0,81,0.00,,,0.00,meteohub,2013-11-25 11:27:00,
2013-11-25 06:32:00,15.6,10.8,30.44,SSW,193,0.0,2.0,81,0.00,,,0.00,meteohub,2013-11-25 11:32:00,
2013-11-25 06:37:00,15.3,10.4,30.45,SSW,194,0.0,0.0,81,0.00,,,0.00,meteohub,2013-11-25 11:37:00,
2013-11-25 06:42:00,14.9,10.4,30.45,SSW,194,0.0,0.0,82,0.00,,,0.00,meteohub,2013-11-25 11:42:00,
2013-11-25 06:47:00,14.9,10.4,30.45,SSW,194,0.0,0.0,82,0.00,,,0.00,meteohub,2013-11-25 11:47:00,
2013-11-25 06:52:00,14.7,10.2,30.46,SSW,193,0.0,0.0,82,0.00,,,0.00,meteohub,2013-11-25 11:52:00,
2013-11-25 06:57:00,14.4,9.9,30.46,SSW,194,0.0,0.0,82,0.00,,,0.00,meteohub,2013-11-25 11:57:00,
2013-11-25 07:02:00,14.2,10.0,30.46,SSE,152,0.0,0.0,83,0.00,,,0.00,meteohub,2013-11-25 12:02:00,
2013-11-25 07:07:00,14.4,10.4,30.46,ESE,119,0.0,0.0,84,0.00,,,0.00,meteohub,2013-11-25 12:07:00,
2013-11-25 07:12:00,14.4,10.4,30.46,ESE,118,0.0,0.0,84,0.00,,,0.00,meteohub,2013-11-25 12:12:00,
2013-11-25 07:17:00,14.5,10.6,30.46,ESE,118,0.0,0.0,84,0.00,,,0.00,meteohub,2013-11-25 12:17:00,
2013-11-25 07:22:00,14.4,10.4,30.46,ESE,118,0.0,0.0,84,0.00,,,0.00,meteohub,2013-11-25 12:22:00,
2013-11-25 07:27:00,14.5,10.6,30.46,ESE,119,0.0,0.0,84,0.00,,,0.00,meteohub,2013-11-25 12:27:00,
2013-11-25 07:32:00,15.1,11.1,30.46,ESE,119,0.0,0.0,84,0.00,,,0.00,meteohub,2013-11-25 12:32:00,
2013-11-25 07:37:00,15.4,11.7,30.46,East,90,1.0,1.0,85,0.00,,,0.00,meteohub,2013-11-25 12:37:00,
2013-11-25 07:42:00,16.2,12.4,30.46,SSE,163,0.0,1.0,85,0.00,,,0.00,meteohub,2013-11-25 12:42:00,
2013-11-25 07:47:00,17.2,13.3,30.46,SW,236,3.0,3.0,84,0.00,,,0.00,meteohub,2013-11-25 12:47:00,
2013-11-25 07:52:00,18.5,13.6,30.46,SW,222,1.0,4.0,81,0.00,,,0.00,meteohub,2013-11-25 12:52:00,
2013-11-25 07:57:00,19.6,14.4,30.46,WSW,248,0.0,5.0,80,0.00,,,0.00,meteohub,2013-11-25 12:57:00,
2013-11-25 08:02:00,20.5,14.7,30.46,NW,314,0.0,5.0,78,0.00,,,0.00,meteohub,2013-11-25 13:02:00,
2013-11-25 08:07:00,21.4,15.1,30.46,West,273,1.0,2.0,76,0.00,,,0.00,meteohub,2013-11-25 13:07:00,
2013-11-25 08:12:00,21.9,14.9,30.46,West,268,0.0,4.0,74,0.00,,,0.00,meteohub,2013-11-25 13:12:00,
2013-11-25 08:17:00,22.5,15.1,30.46,WNW,283,1.0,4.0,73,0.00,,,0.00,meteohub,2013-11-25 13:17:00,
2013-11-25 08:22:00,23.2,15.4,30.47,SW,231,0.0,4.0,72,0.00,,,0.00,meteohub,2013-11-25 13:22:00,
2013-11-25 08:27:00,23.5,15.3,30.47,SW,228,2.0,3.0,70,0.00,,,0.00,meteohub,2013-11-25 13:27:00,
2013-11-25 08:32:00,23.7,15.4,30.47,NW,312,1.0,4.0,70,0.00,,,0.00,meteohub,2013-11-25 13:32:00,
2013-11-25 08:37:00,24.1,15.4,30.47,SW,231,2.0,4.0,69,0.00,,,0.00,meteohub,2013-11-25 13:37:00,
2013-11-25 08:42:00,24.4,15.8,30.47,SSW,208,1.0,4.0,69,0.00,,,0.00,meteohub,2013-11-25 13:42:00,
2013-11-25 08:47:00,25.2,16.3,30.47,WSW,243,1.0,4.0,69,0.00,,,0.00,meteohub,2013-11-25 13:47:00,
2013-11-25 08:52:00,25.5,16.2,30.48,West,263,4.0,4.0,67,0.00,,,0.00,meteohub,2013-11-25 13:52:00,
2013-11-25 08:57:00,25.3,16.0,30.48,NW,310,3.0,5.0,67,0.00,,,0.00,meteohub,2013-11-25 13:57:00,
2013-11-25 09:02:00,25.3,15.3,30.48,SW,235,3.0,6.0,65,0.00,,,0.00,meteohub,2013-11-25 14:02:00,
2013-11-25 09:07:00,25.3,15.3,30.48,WNW,292,1.0,6.0,65,0.00,,,0.00,meteohub,2013-11-25 14:07:00,
2013-11-25 09:12:00,25.3,15.3,30.48,WNW,302,1.0,7.0,65,0.00,,,0.00,meteohub,2013-11-25 14:12:00,
2013-11-25 09:17:00,25.9,16.2,30.48,WSW,248,2.0,10.0,66,0.00,,,0.00,meteohub,2013-11-25 14:17:00,
2013-11-25 09:22:00,26.2,16.2,30.48,WSW,243,1.0,10.0,65,0.00,,,0.00,meteohub,2013-11-25 14:22:00,
2013-11-25 09:27:00,26.4,16.0,30.48,SE,138,1.0,5.0,64,0.00,,,0.00,meteohub,2013-11-25 14:27:00,
2013-11-25 09:32:00,26.8,15.8,30.48,WSW,249,2.0,5.0,63,0.00,,,0.00,meteohub,2013-11-25 14:32:00,
2013-11-25 09:37:00,27.1,16.2,30.48,WSW,246,4.0,5.0,63,0.00,,,0.00,meteohub,2013-11-25 14:37:00,
2013-11-25 09:42:00,27.3,16.0,30.48,SSE,166,4.0,5.0,62,0.00,,,0.00,meteohub,2013-11-25 14:42:00,
2013-11-25 09:47:00,27.3,15.6,30.48,West,260,1.0,5.0,61,0.00,,,0.00,meteohub,2013-11-25 14:47:00,
2013-11-25 09:52:00,27.3,15.3,30.48,West,274,5.0,5.0,60,0.00,,,0.00,meteohub,2013-11-25 14:52:00,
2013-11-25 09:57:00,27.7,16.3,30.48,SSW,195,3.0,6.0,62,0.00,,,0.00,meteohub,2013-11-25 14:57:00,
2013-11-25 10:02:00,28.0,16.0,30.47,SSE,163,2.0,6.0,60,0.00,,,0.00,meteohub,2013-11-25 15:02:00,
2013-11-25 10:07:00,28.6,16.2,30.47,SSE,148,1.0,6.0,59,0.00,,,0.00,meteohub,2013-11-25 15:07:00,
2013-11-25 10:12:00,28.8,15.8,30.47,West,280,3.0,5.0,58,0.00,,,0.00,meteohub,2013-11-25 15:12:00,
2013-11-25 10:17:00,28.9,16.0,30.46,SW,222,1.0,6.0,58,0.00,,,0.00,meteohub,2013-11-25 15:17:00,
2013-11-25 10:22:00,29.3,16.0,30.46,NW,309,2.0,6.0,57,0.00,,,0.00,meteohub,2013-11-25 15:22:00,
2013-11-25 10:27:00,29.3,16.0,30.46,SSW,196,2.0,6.0,57,0.00,,,0.00,meteohub,2013-11-25 15:27:00,
2013-11-25 10:32:00,29.3,16.0,30.46,SSW,203,2.0,6.0,57,0.00,,,0.00,meteohub,2013-11-25 15:32:00,
2013-11-25 10:37:00,29.5,15.8,30.46,WSW,257,4.0,6.0,56,0.00,,,0.00,meteohub,2013-11-25 15:37:00,
2013-11-25 10:42:00,29.7,16.3,30.45,SSE,156,3.0,6.0,57,0.00,,,0.00,meteohub,2013-11-25 15:42:00,
2013-11-25 10:47:00,30.0,16.2,30.45,WNW,285,1.0,6.0,56,0.00,,,0.00,meteohub,2013-11-25 15:47:00,
2013-11-25 10:52:00,30.4,15.8,30.45,WSW,240,3.0,5.0,54,0.00,,,0.00,meteohub,2013-11-25 15:52:00,
2013-11-25 10:57:00,30.6,16.0,30.45,WSW,240,2.0,5.0,54,0.00,,,0.00,meteohub,2013-11-25 15:57:00,
2013-11-25 11:02:00,30.4,14.9,30.44,SSE,156,5.0,5.0,52,0.00,,,0.00,meteohub,2013-11-25 16:02:00,
2013-11-25 11:07:00,30.0,14.9,30.44,WNW,285,2.0,9.0,53,0.00,,,0.00,meteohub,2013-11-25 16:07:00,
2013-11-25 11:12:00,30.2,15.6,30.44,SW,229,0.0,9.0,54,0.00,,,0.00,meteohub,2013-11-25 16:12:00,
2013-11-25 11:17:00,30.9,15.8,30.44,WSW,238,1.0,9.0,53,0.00,,,0.00,meteohub,2013-11-25 16:17:00,
2013-11-25 11:22:00,31.3,16.2,30.43,WSW,238,0.0,5.0,53,0.00,,,0.00,meteohub,2013-11-25 16:22:00,
2013-11-25 11:27:00,31.8,16.2,30.43,SSE,159,2.0,5.0,52,0.00,,,0.00,meteohub,2013-11-25 16:27:00,
2013-11-25 11:32:00,32.0,16.9,30.43,SE,133,3.0,5.0,53,0.00,,,0.00,meteohub,2013-11-25 16:32:00,
2013-11-25 11:37:00,32.4,16.7,30.43,SSW,205,2.0,6.0,52,0.00,,,0.00,meteohub,2013-11-25 16:37:00,
2013-11-25 11:42:00,32.0,15.4,30.43,WSW,240,1.0,7.0,50,0.00,,,0.00,meteohub,2013-11-25 16:42:00,
2013-11-25 11:47:00,32.0,16.0,30.42,SSE,167,2.0,7.0,51,0.00,,,0.00,meteohub,2013-11-25 16:47:00,
2013-11-25 11:52:00,31.8,15.8,30.42,WNW,290,2.0,8.0,51,0.00,,,0.00,meteohub,2013-11-25 16:52:00,
2013-11-25 11:57:00,31.8,15.8,30.41,WSW,238,2.0,8.0,51,0.00,,,0.00,meteohub,2013-11-25 16:57:00,
2013-11-25 12:02:00,32.2,16.2,30.41,East,91,1.0,8.0,51,0.00,,,0.00,meteohub,2013-11-25 17:02:00,
2013-11-25 12:07:00,32.4,15.8,30.41,SW,221,2.0,7.0,50,0.00,,,0.00,meteohub,2013-11-25 17:07:00,
2013-11-25 12:12:00,32.7,16.2,30.40,SW,217,1.0,7.0,50,0.00,,,0.00,meteohub,2013-11-25 17:12:00,
2013-11-25 12:17:00,33.1,16.5,30.40,West,263,5.0,7.0,50,0.00,,,0.00,meteohub,2013-11-25 17:17:00,
2013-11-25 12:22:00,32.9,15.8,30.40,West,270,2.0,7.0,49,0.00,,,0.00,meteohub,2013-11-25 17:22:00,
2013-11-25 12:27:00,33.1,16.0,30.40,West,260,5.0,7.0,49,0.00,,,0.00,meteohub,2013-11-25 17:27:00,
2013-11-25 12:32:00,32.7,15.6,30.39,West,264,2.0,7.0,49,0.00,,,0.00,meteohub,2013-11-25 17:32:00,
2013-11-25 12:37:00,33.6,16.9,30.39,ESE,110,3.0,6.0,50,0.00,,,0.00,meteohub,2013-11-25 17:37:00,
2013-11-25 12:42:00,33.8,16.2,30.38,South,169,1.0,6.0,48,0.00,,,0.00,meteohub,2013-11-25 17:42:00,
2013-11-25 12:47:00,34.0,16.3,30.38,SSE,153,0.0,6.0,48,0.00,,,0.00,meteohub,2013-11-25 17:47:00,
2013-11-25 12:52:00,34.3,16.7,30.38,SSE,165,2.0,7.0,48,0.00,,,0.00,meteohub,2013-11-25 17:52:00,
2013-11-25 12:57:00,34.3,16.2,30.38,West,263,4.0,7.0,47,0.00,,,0.00,meteohub,2013-11-25 17:57:00,
2013-11-25 13:02:00,34.3,16.7,30.38,SSW,193,1.0,6.0,48,0.00,,,0.00,meteohub,2013-11-25 18:02:00,
2013-11-25 13:07:00,34.3,15.6,30.37,West,270,2.0,6.0,46,0.00,,,0.00,meteohub,2013-11-25 18:07:00,
2013-11-25 13:12:00,34.2,16.5,30.37,SSW,197,2.0,6.0,48,0.00,,,0.00,meteohub,2013-11-25 18:12:00,
2013-11-25 13:17:00,34.7,16.5,30.37,South,170,2.0,6.0,47,0.00,,,0.00,meteohub,2013-11-25 18:17:00,
2013-11-25 13:22:00,34.5,15.8,30.36,West,263,3.0,7.0,46,0.00,,,0.00,meteohub,2013-11-25 18:22:00,
2013-11-25 13:27:00,34.2,15.6,30.36,West,261,2.0,8.0,46,0.00,,,0.00,meteohub,2013-11-25 18:27:00,
2013-11-25 13:32:00,34.2,15.6,30.36,South,169,2.0,8.0,46,0.00,,,0.00,meteohub,2013-11-25 18:32:00,
2013-11-25 13:37:00,34.3,15.6,30.35,SE,134,2.0,8.0,46,0.00,,,0.00,meteohub,2013-11-25 18:37:00,
2013-11-25 13:42:00,34.3,15.6,30.35,WNW,295,2.0,6.0,46,0.00,,,0.00,meteohub,2013-11-25 18:42:00,
2013-11-25 13:47:00,34.3,15.6,30.35,South,190,1.0,7.0,46,0.00,,,0.00,meteohub,2013-11-25 18:47:00,
2013-11-25 13:52:00,34.5,16.3,30.35,South,186,2.0,7.0,47,0.00,,,0.00,meteohub,2013-11-25 18:52:00,
2013-11-25 13:57:00,34.7,16.0,30.35,SSE,159,2.0,5.0,46,0.00,,,0.00,meteohub,2013-11-25 18:57:00,
2013-11-25 14:02:00,34.3,16.2,30.35,SW,224,1.0,6.0,47,0.00,,,0.00,meteohub,2013-11-25 19:02:00,
2013-11-25 14:07:00,34.3,15.6,30.35,SSW,195,3.0,6.0,46,0.00,,,0.00,meteohub,2013-11-25 19:07:00,
2013-11-25 14:12:00,34.0,15.8,30.35,SSE,152,6.0,7.0,47,0.00,,,0.00,meteohub,2013-11-25 19:12:00,
2013-11-25 14:17:00,33.8,15.3,30.35,SW,215,2.0,7.0,46,0.00,,,0.00,meteohub,2013-11-25 19:17:00,
2013-11-25 14:22:00,34.0,15.8,30.35,SSE,150,2.0,7.0,47,0.00,,,0.00,meteohub,2013-11-25 19:22:00,
2013-11-25 14:27:00,34.3,15.3,30.35,SSW,210,1.0,6.0,45,0.00,,,0.00,meteohub,2013-11-25 19:27:00,
2013-11-25 14:32:00,34.7,15.4,30.35,SSW,205,1.0,6.0,45,0.00,,,0.00,meteohub,2013-11-25 19:32:00,
2013-11-25 14:37:00,35.2,15.4,30.35,SW,219,2.0,6.0,44,0.00,,,0.00,meteohub,2013-11-25 19:37:00,
2013-11-25 14:42:00,35.4,15.1,30.34,West,274,3.0,6.0,43,0.00,,,0.00,meteohub,2013-11-25 19:42:00,
2013-11-25 14:47:00,35.4,15.1,30.34,SW,221,1.0,8.0,43,0.00,,,0.00,meteohub,2013-11-25 19:47:00,
2013-11-25 14:52:00,35.4,15.1,30.34,SSE,167,6.0,9.0,43,0.00,,,0.00,meteohub,2013-11-25 19:52:00,
2013-11-25 14:57:00,35.2,15.4,30.34,WSW,252,7.0,9.0,44,0.00,,,0.00,meteohub,2013-11-25 19:57:00,
2013-11-25 15:02:00,35.1,15.8,30.34,West,266,2.0,9.0,45,0.00,,,0.00,meteohub,2013-11-25 20:02:00,
2013-11-25 15:07:00,35.4,16.2,30.34,SW,234,2.0,8.0,45,0.00,,,0.00,meteohub,2013-11-25 20:07:00,
2013-11-25 15:12:00,35.4,15.6,30.34,ESE,116,1.0,8.0,44,0.00,,,0.00,meteohub,2013-11-25 20:12:00,
2013-11-25 15:17:00,35.4,16.2,30.35,SSW,198,2.0,6.0,45,0.00,,,0.00,meteohub,2013-11-25 20:17:00,
2013-11-25 15:22:00,34.9,15.6,30.35,WNW,293,2.0,8.0,45,0.00,,,0.00,meteohub,2013-11-25 20:22:00,
2013-11-25 15:27:00,34.2,15.1,30.35,WSW,256,2.0,8.0,45,0.00,,,0.00,meteohub,2013-11-25 20:27:00,
2013-11-25 15:32:00,33.6,14.5,30.36,South,180,3.0,8.0,45,0.00,,,0.00,meteohub,2013-11-25 20:32:00,
2013-11-25 15:37:00,33.1,14.0,30.36,WSW,250,3.0,7.0,45,0.00,,,0.00,meteohub,2013-11-25 20:37:00,
2013-11-25 15:42:00,32.9,14.4,30.37,ESE,107,1.0,7.0,46,0.00,,,0.00,meteohub,2013-11-25 20:42:00,
2013-11-25 15:47:00,32.7,14.7,30.37,SW,226,3.0,7.0,47,0.00,,,0.00,meteohub,2013-11-25 20:47:00,
2013-11-25 15:52:00,32.5,14.0,30.36,ESE,120,2.0,6.0,46,0.00,,,0.00,meteohub,2013-11-25 20:52:00,
2013-11-25 15:57:00,32.4,14.4,30.35,SSE,148,0.0,4.0,47,0.00,,,0.00,meteohub,2013-11-25 20:57:00,
2013-11-25 16:02:00,32.4,14.4,30.35,WSW,242,3.0,4.0,47,0.00,,,0.00,meteohub,2013-11-25 21:02:00,
2013-11-25 16:07:00,32.2,14.2,30.35,East,98,1.0,7.0,47,0.00,,,0.00,meteohub,2013-11-25 21:07:00,
2013-11-25 16:12:00,32.0,13.6,30.34,SW,218,2.0,7.0,46,0.00,,,0.00,meteohub,2013-11-25 21:12:00,
2013-11-25 16:17:00,32.0,14.0,30.35,WSW,257,1.0,7.0,47,0.00,,,0.00,meteohub,2013-11-25 21:17:00,
2013-11-25 16:22:00,31.8,13.5,30.34,SSE,150,0.0,6.0,46,0.00,,,0.00,meteohub,2013-11-25 21:22:00,
2013-11-25 16:27:00,31.8,13.5,30.34,South,183,2.0,6.0,46,0.00,,,0.00,meteohub,2013-11-25 21:27:00,
2013-11-25 16:32:00,31.8,13.8,30.34,SW,214,0.0,6.0,47,0.00,,,0.00,meteohub,2013-11-25 21:32:00,
2013-11-25 16:37:00,31.6,13.6,30.34,WSW,250,0.0,3.0,47,0.00,,,0.00,meteohub,2013-11-25 21:37:00,
2013-11-25 16:42:00,31.5,14.0,30.33,SSW,192,1.0,3.0,48,0.00,,,0.00,meteohub,2013-11-25 21:42:00,
2013-11-25 16:47:00,31.3,13.8,30.34,SSE,153,1.0,3.0,48,0.00,,,0.00,meteohub,2013-11-25 21:47:00,
2013-11-25 16:52:00,31.3,13.8,30.33,SW,228,3.0,3.0,48,0.00,,,0.00,meteohub,2013-11-25 21:52:00,
2013-11-25 16:57:00,31.3,13.8,30.34,SW,228,0.0,4.0,48,0.00,,,0.00,meteohub,2013-11-25 21:57:00,
2013-11-25 17:02:00,31.1,14.2,30.34,SSW,197,0.0,4.0,49,0.00,,,0.00,meteohub,2013-11-25 22:02:00,
2013-11-25 17:07:00,30.9,14.0,30.34,SSE,149,1.0,4.0,49,0.00,,,0.00,meteohub,2013-11-25 22:07:00,
2013-11-25 17:12:00,31.1,14.2,30.34,SSW,201,4.0,4.0,49,0.00,,,0.00,meteohub,2013-11-25 22:12:00,
2013-11-25 17:17:00,31.1,14.2,30.35,South,187,1.0,5.0,49,0.00,,,0.00,meteohub,2013-11-25 22:17:00,
2013-11-25 17:22:00,31.1,14.5,30.35,SSW,203,1.0,5.0,50,0.00,,,0.00,meteohub,2013-11-25 22:22:00,
2013-11-25 17:27:00,30.9,14.5,30.35,SE,136,2.0,5.0,50,0.00,,,0.00,meteohub,2013-11-25 22:27:00,
2013-11-25 17:32:00,30.9,14.5,30.35,WSW,256,1.0,3.0,50,0.00,,,0.00,meteohub,2013-11-25 22:32:00,
2013-11-25 17:37:00,30.7,14.4,30.35,SSW,212,0.0,3.0,50,0.00,,,0.00,meteohub,2013-11-25 22:37:00,
2013-11-25 17:42:00,30.4,14.0,30.35,SSW,212,0.0,3.0,50,0.00,,,0.00,meteohub,2013-11-25 22:42:00,
2013-11-25 17:47:00,30.0,14.0,30.34,SSE,149,0.0,3.0,51,0.00,,,0.00,meteohub,2013-11-25 22:47:00,
2013-11-25 17:52:00,29.8,14.0,30.34,SSE,156,0.0,4.0,51,0.00,,,0.00,meteohub,2013-11-25 22:52:00,
2013-11-25 17:57:00,29.8,14.0,30.34,ESE,123,0.0,4.0,51,0.00,,,0.00,meteohub,2013-11-25 22:57:00,
2013-11-25 18:02:00,29.8,14.0,30.34,SE,137,1.0,4.0,51,0.00,,,0.00,meteohub,2013-11-25 23:02:00,
2013-11-25 18:07:00,29.8,14.0,30.34,SSW,201,0.0,4.0,51,0.00,,,0.00,meteohub,2013-11-25 23:07:00,
2013-11-25 18:12:00,29.7,14.2,30.34,SSE,150,0.0,3.0,52,0.00,,,0.00,meteohub,2013-11-25 23:12:00,
2013-11-25 18:17:00,29.7,14.5,30.35,SE,139,1.0,3.0,53,0.00,,,0.00,meteohub,2013-11-25 23:17:00,
2013-11-25 18:22:00,29.7,14.2,30.35,WSW,243,1.0,3.0,52,0.00,,,0.00,meteohub,2013-11-25 23:22:00,
2013-11-25 18:27:00,29.7,14.5,30.35,SE,143,1.0,5.0,53,0.00,,,0.00,meteohub,2013-11-25 23:27:00,
2013-11-25 18:32:00,29.7,14.5,30.35,WSW,245,0.0,5.0,53,0.00,,,0.00,meteohub,2013-11-25 23:32:00,
2013-11-25 18:37:00,29.7,14.5,30.34,West,277,1.0,5.0,53,0.00,,,0.00,meteohub,2013-11-25 23:37:00,
2013-11-25 18:42:00,29.5,14.9,30.34,SE,140,0.0,4.0,54,0.00,,,0.00,meteohub,2013-11-25 23:42:00,
2013-11-25 18:47:00,29.5,14.5,30.35,South,186,0.0,4.0,53,0.00,,,0.00,meteohub,2013-11-25 23:47:00,
2013-11-25 18:52:00,29.1,14.5,30.35,SSE,152,0.0,3.0,54,0.00,,,0.00,meteohub,2013-11-25 23:52:00,
2013-11-25 18:57:00,29.1,14.5,30.34,ESE,120,1.0,3.0,54,0.00,,,0.00,meteohub,2013-11-25 23:57:00,
2013-11-25 19:02:00,29.1,14.9,30.34,SE,131,0.0,3.0,55,0.00,,,0.00,meteohub,2013-11-26 00:02:00,
2013-11-25 19:07:00,29.1,14.5,30.34,SE,132,2.0,2.0,54,0.00,,,0.00,meteohub,2013-11-26 00:07:00,
2013-11-25 19:12:00,29.1,14.5,30.34,SSE,155,0.0,4.0,54,0.00,,,0.00,meteohub,2013-11-26 00:12:00,
2013-11-25 19:17:00,29.1,14.2,30.34,SE,134,1.0,4.0,53,0.00,,,0.00,meteohub,2013-11-26 00:17:00,
2013-11-25 19:22:00,29.1,14.5,30.34,SE,134,0.0,4.0,54,0.00,,,0.00,meteohub,2013-11-26 00:22:00,
2013-11-25 19:27:00,28.9,14.4,30.34,SE,134,0.0,2.0,54,0.00,,,0.00,meteohub,2013-11-26 00:27:00,
2013-11-25 19:32:00,28.9,14.4,30.35,WNW,295,1.0,2.0,54,0.00,,,0.00,meteohub,2013-11-26 00:32:00,
2013-11-25 19:37:00,28.9,14.7,30.35,WNW,295,0.0,3.0,55,0.00,,,0.00,meteohub,2013-11-26 00:37:00,
2013-11-25 19:42:00,28.8,14.7,30.34,West,273,0.0,3.0,55,0.00,,,0.00,meteohub,2013-11-26 00:42:00,
2013-11-25 19:47:00,28.6,15.3,30.34,SE,134,0.0,3.0,57,0.00,,,0.00,meteohub,2013-11-26 00:47:00,
2013-11-25 19:52:00,28.6,15.3,30.34,SE,134,0.0,0.0,57,0.00,,,0.00,meteohub,2013-11-26 00:52:00,
2013-11-25 19:57:00,28.2,14.2,30.34,SSW,201,2.0,0.0,55,0.00,,,0.00,meteohub,2013-11-26 00:57:00,
2013-11-25 20:02:00,28.6,14.9,30.33,East,98,0.0,3.0,56,0.00,,,0.00,meteohub,2013-11-26 01:02:00,
2013-11-25 20:07:00,28.6,14.0,30.32,SSW,201,1.0,3.0,54,0.00,,,0.00,meteohub,2013-11-26 01:07:00,
2013-11-25 20:12:00,28.8,14.2,30.32,SE,144,3.0,7.0,54,0.00,,,0.00,meteohub,2013-11-26 01:12:00,
2013-11-25 20:17:00,28.9,14.0,30.32,SE,142,1.0,7.0,53,0.00,,,0.00,meteohub,2013-11-26 01:17:00,
2013-11-25 20:22:00,28.9,14.0,30.32,SW,214,2.0,7.0,53,0.00,,,0.00,meteohub,2013-11-26 01:22:00,
2013-11-25 20:27:00,28.9,14.0,30.33,SW,214,0.0,4.0,53,0.00,,,0.00,meteohub,2013-11-26 01:27:00,
2013-11-25 20:32:00,28.9,14.0,30.33,WSW,246,0.0,4.0,53,0.00,,,0.00,meteohub,2013-11-26 01:32:00,
2013-11-25 20:37:00,28.9,14.0,30.33,WSW,252,2.0,4.0,53,0.00,,,0.00,meteohub,2013-11-26 01:37:00,
2013-11-25 20:42:00,29.1,14.2,30.33,WSW,243,0.0,2.0,53,0.00,,,0.00,meteohub,2013-11-26 01:42:00,
2013-11-25 20:47:00,28.9,14.0,30.33,WSW,248,0.0,2.0,53,0.00,,,0.00,meteohub,2013-11-26 01:47:00,
2013-11-25 20:52:00,28.9,14.0,30.33,WSW,246,0.0,2.0,53,0.00,,,0.00,meteohub,2013-11-26 01:52:00,
2013-11-25 20:57:00,28.9,14.0,30.33,WSW,245,0.0,2.0,53,0.00,,,0.00,meteohub,2013-11-26 01:57:00,
2013-11-25 21:02:00,28.9,14.4,30.34,West,273,0.0,2.0,54,0.00,,,0.00,meteohub,2013-11-26 02:02:00,
2013-11-25 21:07:00,28.8,14.2,30.33,West,273,0.0,1.0,54,0.00,,,0.00,meteohub,2013-11-26 02:07:00,
2013-11-25 21:12:00,28.8,14.2,30.32,West,271,0.0,1.0,54,0.00,,,0.00,meteohub,2013-11-26 02:12:00,
2013-11-25 21:17:00,28.8,14.7,30.32,SW,217,0.0,1.0,55,0.00,,,0.00,meteohub,2013-11-26 02:17:00,
2013-11-25 21:22:00,28.9,14.7,30.32,SSW,205,0.0,1.0,55,0.00,,,0.00,meteohub,2013-11-26 02:22:00,
2013-11-25 21:27:00,28.9,14.4,30.32,South,190,0.0,4.0,54,0.00,,,0.00,meteohub,2013-11-26 02:27:00,
2013-11-25 21:32:00,29.1,14.5,30.31,ESE,122,0.0,4.0,54,0.00,,,0.00,meteohub,2013-11-26 02:32:00,
2013-11-25 21:37:00,29.3,14.7,30.32,ENE,78,1.0,4.0,54,0.00,,,0.00,meteohub,2013-11-26 02:37:00,
2013-11-25 21:42:00,29.5,14.9,30.32,SSW,201,0.0,3.0,54,0.00,,,0.00,meteohub,2013-11-26 02:42:00,
2013-11-25 21:47:00,29.5,14.9,30.31,West,267,0.0,3.0,54,0.00,,,0.00,meteohub,2013-11-26 02:47:00,
2013-11-25 21:52:00,29.7,15.1,30.31,WSW,254,0.0,3.0,54,0.00,,,0.00,meteohub,2013-11-26 02:52:00,
2013-11-25 21:57:00,29.5,14.9,30.31,WSW,253,0.0,2.0,54,0.00,,,0.00,meteohub,2013-11-26 02:57:00,
2013-11-25 22:02:00,29.5,15.3,30.31,WSW,253,0.0,1.0,55,0.00,,,0.00,meteohub,2013-11-26 03:02:00,
2013-11-25 22:07:00,29.5,15.3,30.31,ESE,113,1.0,0.0,55,0.00,,,0.00,meteohub,2013-11-26 03:07:00,
2013-11-25 22:12:00,29.5,14.9,30.31,West,262,0.0,3.0,54,0.00,,,0.00,meteohub,2013-11-26 03:12:00,
2013-11-25 22:17:00,29.7,15.1,30.31,West,277,0.0,3.0,54,0.00,,,0.00,meteohub,2013-11-26 03:17:00,
2013-11-25 22:22:00,29.7,15.1,30.31,West,274,0.0,3.0,54,0.00,,,0.00,meteohub,2013-11-26 03:22:00,
2013-11-25 22:27:00,29.7,15.1,30.31,WSW,252,0.0,2.0,54,0.00,,,0.00,meteohub,2013-11-26 03:27:00,
2013-11-25 22:32:00,29.7,15.1,30.30,WSW,250,0.0,2.0,54,0.00,,,0.00,meteohub,2013-11-26 03:32:00,
2013-11-25 22:37:00,29.7,15.1,30.30,ESE,113,0.0,3.0,54,0.00,,,0.00,meteohub,2013-11-26 03:37:00,
2013-11-25 22:42:00,29.5,15.3,30.30,ESE,113,0.0,3.0,55,0.00,,,0.00,meteohub,2013-11-26 03:42:00,
2013-11-25 22:47:00,29.1,14.9,30.30,ESE,113,0.0,2.0,55,0.00,,,0.00,meteohub,2013-11-26 03:47:00,
2013-11-25 22:52:00,29.1,14.9,30.30,ESE,113,0.0,1.0,55,0.00,,,0.00,meteohub,2013-11-26 03:52:00,
2013-11-25 22:57:00,29.1,15.8,30.30,South,190,0.0,3.0,57,0.00,,,0.00,meteohub,2013-11-26 03:57:00,
2013-11-25 23:02:00,29.1,16.2,30.30,SE,131,1.0,3.0,58,0.00,,,0.00,meteohub,2013-11-26 04:02:00,
2013-11-25 23:07:00,29.1,15.8,30.30,SSE,158,0.0,2.0,57,0.00,,,0.00,meteohub,2013-11-26 04:07:00,
2013-11-25 23:12:00,29.1,15.8,30.30,SSW,198,0.0,2.0,57,0.00,,,0.00,meteohub,2013-11-26 04:12:00,
2013-11-25 23:17:00,29.3,16.0,30.30,SSE,163,0.0,2.0,57,0.00,,,0.00,meteohub,2013-11-26 04:17:00,
2013-11-25 23:22:00,29.3,16.3,30.30,SSW,203,0.0,2.0,58,0.00,,,0.00,meteohub,2013-11-26 04:22:00,
2013-11-25 23:27:00,29.5,16.5,30.30,SSW,205,2.0,2.0,58,0.00,,,0.00,meteohub,2013-11-26 04:27:00,
2013-11-25 23:32:00,29.5,16.5,30.30,ESE,123,0.0,2.0,58,0.00,,,0.00,meteohub,2013-11-26 04:32:00,
2013-11-25 23:37:00,29.7,16.7,30.30,SSE,150,1.0,2.0,58,0.00,,,0.00,meteohub,2013-11-26 04:37:00,
2013-11-25 23:42:00,29.8,17.2,30.30,South,188,0.0,3.0,59,0.00,,,0.00,meteohub,2013-11-26 04:42:00,
2013-11-25 23:47:00,29.8,16.9,30.30,WNW,299,1.0,3.0,58,0.00,,,0.00,meteohub,2013-11-26 04:47:00,
2013-11-25 23:52:00,30.0,17.1,30.30,SW,218,0.0,4.0,58,0.00,,,0.00,meteohub,2013-11-26 04:52:00,
2013-11-25 23:57:00,30.0,17.1,30.30,SE,141,1.0,4.0,58,0.00,,,0.00,meteohub,2013-11-26 04:57:00,